createdAt,value
2018-07-14T00:01:16.364Z,96895.70
2018-07-14T00:03:45.693Z,97110.23
2018-07-14T00:06:15.017Z,97024.72
2018-07-14T00:08:44.360Z,97005.12
2018-07-14T00:11:13.671Z,96987.74
2018-07-14T00:13:43.052Z,97023.64
2018-07-14T00:16:12.371Z,97009.86
2018-07-14T00:18:41.471Z,97023.64
2018-07-14T00:21:10.553Z,96986.81
2018-07-14T00:23:39.879Z,96973.44
2018-07-14T00:26:09.200Z,97000.48
2018-07-14T00:28:38.532Z,97011.33
2018-07-14T00:31:07.878Z,97010.25
2018-07-14T00:33:36.956Z,97004.87
2018-07-14T00:36:06.359Z,97009.75
2018-07-14T00:38:35.444Z,96979.61
2018-07-14T00:41:04.769Z,96990.91
2018-07-14T00:43:33.860Z,96975.63
2018-07-14T00:46:02.947Z,97001.47
2018-07-14T00:48:32.003Z,96966.48
2018-07-14T00:51:01.341Z,96980.91
2018-07-14T00:53:30.444Z,96955.70
2018-07-14T00:55:59.835Z,96978.00
2018-07-14T00:58:28.911Z,96997.64
2018-07-14T01:00:58.223Z,96994.77
2018-07-14T01:03:27.540Z,96985.25
2018-07-14T01:05:56.889Z,96992.79
2018-07-14T01:08:26.204Z,97024.61
2018-07-14T01:10:55.540Z,96999.84
2018-07-14T01:13:24.602Z,96983.72
2018-07-14T01:15:53.932Z,96992.86
2018-07-14T01:18:23.249Z,97002.70
2018-07-14T01:20:52.583Z,96986.55
2018-07-14T01:23:21.906Z,96992.53
2018-07-14T01:25:51.233Z,97002.56
2018-07-14T01:28:20.320Z,96964.07
2018-07-14T01:30:49.657Z,96974.20
2018-07-14T01:33:18.980Z,96985.82
2018-07-14T01:35:48.303Z,97003.47
2018-07-14T01:38:17.633Z,96881.00
2018-07-14T01:40:46.711Z,97000.63
2018-07-14T01:43:16.039Z,96990.98
2018-07-14T01:45:45.390Z,97015.59
2018-07-14T01:48:14.692Z,96990.73
2018-07-14T01:50:44.042Z,97025.33
2018-07-14T01:53:13.369Z,96994.98
2018-07-14T01:55:42.748Z,97001.19
2018-07-14T01:58:11.820Z,96997.27
2018-07-14T02:00:40.908Z,96972.31
2018-07-14T02:03:10.253Z,96977.33
2018-07-14T02:05:39.599Z,96991.56
2018-07-14T02:08:08.936Z,96978.78
2018-07-14T02:10:38.272Z,96994.42
2018-07-14T02:13:07.612Z,97001.92
2018-07-14T02:15:36.950Z,96961.42
2018-07-14T02:18:06.287Z,96999.00
2018-07-14T02:20:35.617Z,97006.30
2018-07-14T02:23:04.928Z,97007.84
2018-07-14T02:25:34.004Z,96982.90
2018-07-14T02:28:03.317Z,96929.64
2018-07-14T02:30:32.400Z,96929.09
2018-07-14T02:33:01.717Z,96913.71
2018-07-14T02:35:30.787Z,97107.89
2018-07-14T02:38:00.112Z,96944.80
2018-07-14T02:40:29.188Z,96997.39
2018-07-14T02:42:58.520Z,96950.42
2018-07-14T02:45:27.851Z,96997.37
2018-07-14T02:47:57.180Z,97013.17
2018-07-14T02:50:26.517Z,96988.73
2018-07-14T02:52:55.865Z,97008.86
2018-07-14T02:55:25.189Z,96993.91
2018-07-14T02:57:54.541Z,96941.05
2018-07-14T03:00:23.882Z,96984.59
2018-07-14T03:02:53.216Z,97028.48
2018-07-14T03:05:22.527Z,97001.20
2018-07-14T03:07:51.863Z,97004.91
2018-07-14T03:10:21.197Z,97025.25
2018-07-14T03:12:50.613Z,96803.08
2018-07-14T03:15:19.867Z,96986.53
2018-07-14T03:17:49.205Z,97012.75
2018-07-14T03:20:18.537Z,96989.08
2018-07-14T03:22:47.887Z,96998.52
2018-07-14T03:25:17.240Z,97005.31
2018-07-14T03:27:46.596Z,96993.93
2018-07-14T03:30:15.924Z,96991.28
2018-07-14T03:32:45.268Z,96997.97
2018-07-14T03:35:14.592Z,96985.53
2018-07-14T03:37:44.027Z,96979.80
2018-07-14T03:40:13.348Z,96987.25
2018-07-14T03:42:42.703Z,97004.53
2018-07-14T03:45:12.140Z,97112.05
2018-07-14T03:47:41.480Z,96995.69
2018-07-14T03:50:10.816Z,96988.78
2018-07-14T03:52:40.160Z,96995.31
2018-07-14T03:55:09.479Z,96988.08
2018-07-14T03:57:38.826Z,97005.67
2018-07-14T04:00:08.625Z,97001.48
2018-07-14T04:02:38.004Z,97099.56
2018-07-14T04:05:07.420Z,96997.68
2018-07-14T04:07:36.761Z,97017.82
2018-07-14T04:10:06.116Z,97001.09
2018-07-14T04:12:35.488Z,96998.30
2018-07-14T04:15:04.836Z,96992.33
2018-07-14T04:17:33.912Z,96993.38
2018-07-14T04:20:03.547Z,96996.61
2018-07-14T04:22:32.642Z,97016.72
2018-07-14T04:25:02.251Z,97011.34
2018-07-14T04:27:31.331Z,97005.11
2018-07-14T04:30:00.671Z,97007.38
2018-07-14T04:32:30.009Z,97012.13
2018-07-14T04:34:59.347Z,97000.22
2018-07-14T04:37:28.423Z,96983.88
2018-07-14T04:39:57.768Z,96940.23
2018-07-14T04:42:27.185Z,96996.86
2018-07-14T04:44:56.455Z,97012.55
2018-07-14T04:47:25.805Z,97016.22
2018-07-14T04:49:55.149Z,96987.98
2018-07-14T04:52:24.224Z,97006.79
2018-07-14T04:54:53.557Z,96978.09
2018-07-14T04:57:22.946Z,97009.00
2018-07-14T04:59:52.366Z,97024.23
2018-07-14T05:02:21.697Z,97007.11
2018-07-14T05:04:51.044Z,97004.11
2018-07-14T05:07:20.126Z,97101.25
2018-07-14T05:09:49.463Z,97026.66
2018-07-14T05:12:18.780Z,97002.07
2018-07-14T05:14:48.112Z,97020.34
2018-07-14T05:17:17.453Z,97022.02
2018-07-14T05:19:46.798Z,96986.70
2018-07-14T05:22:16.128Z,96992.03
2018-07-14T05:24:45.484Z,97128.14
2018-07-14T05:27:14.823Z,96993.88
2018-07-14T05:29:44.171Z,96992.91
2018-07-14T05:32:13.508Z,97001.88
2018-07-14T05:34:42.872Z,97010.04
2018-07-14T05:37:18.768Z,97013.66
2018-07-14T05:39:48.100Z,97019.16
2018-07-14T05:42:17.186Z,96997.05
2018-07-14T05:44:46.299Z,96931.81
2018-07-14T05:47:15.631Z,97010.88
2018-07-14T05:49:45.015Z,97002.28
2018-07-14T05:52:14.350Z,96998.67
2018-07-14T05:54:43.692Z,96993.14
2018-07-14T05:57:12.780Z,96955.05
2018-07-14T05:59:41.886Z,96994.75
2018-07-14T06:02:10.959Z,96986.56
2018-07-14T06:04:40.286Z,96922.00
2018-07-14T06:07:09.656Z,96980.22
2018-07-14T06:09:38.974Z,96992.56
2018-07-14T06:12:08.909Z,96982.58
2018-07-14T06:14:38.240Z,96979.95
2018-07-14T06:17:07.575Z,96984.84
2018-07-14T06:19:36.937Z,96991.09
2018-07-14T06:22:06.275Z,96981.60
2018-07-14T06:24:35.608Z,96992.50
2018-07-14T06:27:04.979Z,97000.06
2018-07-14T06:29:34.312Z,96990.31
2018-07-14T06:32:03.679Z,97010.12
2018-07-14T06:34:32.996Z,96995.52
2018-07-14T06:37:02.104Z,97031.01
2018-07-14T06:39:31.448Z,97020.97
2018-07-14T06:42:00.774Z,96982.61
2018-07-14T06:44:30.112Z,97017.28
2018-07-14T06:46:59.456Z,96995.05
2018-07-14T06:49:28.779Z,97009.20
2018-07-14T06:51:58.187Z,97133.44
2018-07-14T06:54:27.526Z,97002.61
2018-07-14T06:56:56.888Z,97020.36
2018-07-14T06:59:26.207Z,97014.26
2018-07-14T07:01:55.565Z,97010.96
2018-07-14T07:04:24.893Z,97021.20
2018-07-14T07:06:54.227Z,97026.73
2018-07-14T07:09:23.559Z,97012.97
2018-07-14T07:11:52.920Z,97003.31
2018-07-14T07:14:22.331Z,97003.11
2018-07-14T07:16:51.683Z,97033.06
2018-07-14T07:19:21.031Z,97016.95
2018-07-14T07:21:50.366Z,97011.66
2018-07-14T07:24:19.792Z,97008.60
2018-07-14T07:26:49.144Z,96985.89
2018-07-14T07:29:18.497Z,96997.09
2018-07-14T07:31:47.852Z,97002.28
2018-07-14T07:34:17.324Z,96988.50
2018-07-14T07:36:46.668Z,97010.98
2018-07-14T07:39:16.002Z,96917.23
2018-07-14T07:41:45.384Z,97009.64
2018-07-14T07:44:14.716Z,96983.59
2018-07-14T07:46:44.060Z,97010.98
2018-07-14T07:49:13.395Z,96979.72
2018-07-14T07:51:42.770Z,97027.94
2018-07-14T07:54:12.107Z,97014.98
2018-07-14T07:56:41.459Z,97003.66
2018-07-14T07:59:10.780Z,97015.87
2018-07-14T08:01:40.128Z,97004.66
2018-07-14T08:04:09.474Z,97012.89
2018-07-14T08:06:38.824Z,97003.62
2018-07-14T08:09:08.652Z,97133.88
2018-07-14T08:11:37.751Z,96990.08
2018-07-14T08:14:07.096Z,97024.16
2018-07-14T08:16:36.484Z,96990.45
2018-07-14T08:19:05.526Z,96989.67
2018-07-14T08:21:34.991Z,97088.25
2018-07-14T08:24:04.324Z,96959.31
2018-07-14T08:26:33.668Z,96951.53
2018-07-14T08:29:03.017Z,96986.72
2018-07-14T08:31:32.377Z,96988.31
2018-07-14T08:34:01.729Z,96991.93
2018-07-14T08:36:31.066Z,96969.08
2018-07-14T08:39:00.429Z,96981.46
2018-07-14T08:41:29.777Z,97004.59
2018-07-14T08:43:59.129Z,97004.06
2018-07-14T08:46:28.481Z,96967.89
2018-07-14T08:48:57.836Z,97001.39
2018-07-14T08:51:27.207Z,96979.08
2018-07-14T08:53:56.531Z,96930.76
2018-07-14T08:56:25.891Z,96993.52
2018-07-14T08:58:55.244Z,96992.88
2018-07-14T09:01:24.584Z,96971.36
2018-07-14T09:03:53.950Z,96964.64
2018-07-14T09:06:23.035Z,96803.01
2018-07-14T09:08:52.394Z,96976.39
2018-07-14T09:11:21.736Z,96939.61
2018-07-14T09:13:51.098Z,96969.70
2018-07-14T09:16:20.568Z,96937.70
2018-07-14T09:18:49.852Z,96977.04
2018-07-14T09:21:19.227Z,96992.08
2018-07-14T09:23:48.592Z,96978.95
2018-07-14T09:26:17.921Z,96962.58
2018-07-14T09:28:47.263Z,96952.50
2018-07-14T09:31:16.344Z,96981.71
2018-07-14T09:33:45.697Z,96839.95
2018-07-14T09:36:15.051Z,96987.45
2018-07-14T09:38:44.423Z,96979.73
2018-07-14T09:41:13.756Z,96991.81
2018-07-14T09:43:42.870Z,96939.84
2018-07-14T09:46:12.208Z,96960.45
2018-07-14T09:48:41.556Z,96965.92
2018-07-14T09:51:11.464Z,96930.41
2018-07-14T09:53:40.560Z,96958.44
2018-07-14T09:56:09.901Z,96995.52
2018-07-14T09:58:39.269Z,96947.05
2018-07-14T10:01:09.731Z,96926.65
2018-07-14T10:03:39.736Z,96940.99
2018-07-14T10:06:09.092Z,96935.97
2018-07-14T10:08:38.457Z,96969.52
2018-07-14T10:11:07.809Z,96951.66
2018-07-14T10:13:37.139Z,96909.41
2018-07-14T10:16:06.528Z,96947.75
2018-07-14T10:18:35.877Z,96917.97
2018-07-14T10:21:05.207Z,96920.72
2018-07-14T10:23:34.576Z,97015.48
2018-07-14T10:26:03.927Z,96925.00
2018-07-14T10:28:33.269Z,96965.84
2018-07-14T10:31:02.636Z,96941.72
2018-07-14T10:33:31.973Z,96925.78
2018-07-14T10:36:01.320Z,96947.94
2018-07-14T10:38:30.408Z,96925.02
2018-07-14T10:40:59.772Z,97012.07
2018-07-14T10:43:29.111Z,96910.81
2018-07-14T10:45:58.485Z,97024.17
2018-07-14T10:48:27.833Z,96924.39
2018-07-14T10:50:57.184Z,96931.18
2018-07-14T10:53:26.529Z,96924.42
2018-07-14T10:55:55.633Z,96907.19
2018-07-14T10:58:24.965Z,96952.50
2018-07-14T11:00:54.313Z,96922.88
2018-07-14T11:03:23.635Z,96916.94
2018-07-14T11:05:52.728Z,96912.02
2018-07-14T11:08:22.071Z,96977.99
2018-07-14T11:10:51.412Z,96932.03
2018-07-14T11:13:20.755Z,96962.49
2018-07-14T11:15:50.089Z,96953.66
2018-07-14T11:18:19.421Z,96926.63
2018-07-14T11:20:48.503Z,96934.58
2018-07-14T11:23:17.839Z,97027.17
2018-07-14T11:25:47.196Z,96911.47
2018-07-14T11:28:16.545Z,96912.92
2018-07-14T11:30:45.940Z,96926.20
2018-07-14T11:33:15.298Z,96906.43
2018-07-14T11:35:44.639Z,96988.34
2018-07-14T11:38:13.980Z,96994.66
2018-07-14T11:40:43.327Z,96949.94
2018-07-14T11:43:12.680Z,96940.52
2018-07-14T11:45:42.021Z,96942.52
2018-07-14T11:48:11.108Z,96942.83
2018-07-14T11:50:40.473Z,97008.97
2018-07-14T11:53:09.821Z,96926.03
2018-07-14T11:55:39.183Z,96942.83
2018-07-14T11:58:09.503Z,96975.08
2018-07-14T12:00:38.847Z,96960.34
2018-07-14T12:03:07.935Z,96964.84
2018-07-14T12:05:37.260Z,97075.73
2018-07-14T12:08:06.592Z,96940.11
2018-07-14T12:10:35.919Z,96933.23
2018-07-14T12:13:05.264Z,96944.70
2018-07-14T12:15:34.608Z,96935.08
2018-07-14T12:18:03.948Z,96959.58
2018-07-14T12:20:33.019Z,96950.25
2018-07-14T12:23:02.370Z,96948.77
2018-07-14T12:25:31.704Z,96942.70
2018-07-14T12:28:01.047Z,96925.70
2018-07-14T12:30:30.128Z,96953.59
2018-07-14T12:32:59.459Z,96942.25
2018-07-14T12:35:28.807Z,96933.05
2018-07-14T12:37:58.140Z,96830.98
2018-07-14T12:40:27.234Z,96921.92
2018-07-14T12:42:56.323Z,96931.71
2018-07-14T12:45:25.398Z,96906.95
2018-07-14T12:47:54.731Z,96920.92
2018-07-14T12:50:24.108Z,96894.48
2018-07-14T12:52:53.456Z,96898.58
2018-07-14T12:55:22.816Z,96916.61
2018-07-14T12:57:52.160Z,96877.83
2018-07-14T13:00:21.513Z,96895.56
2018-07-14T13:02:50.836Z,96954.72
2018-07-14T13:05:20.188Z,96833.70
2018-07-14T13:07:49.528Z,96891.56
2018-07-14T13:10:18.860Z,96852.65
2018-07-14T13:12:48.176Z,96879.45
2018-07-14T13:15:17.504Z,96868.89
2018-07-14T13:17:46.836Z,96874.91
2018-07-14T13:20:15.914Z,96870.98
2018-07-14T13:22:45.297Z,96868.52
2018-07-14T13:25:14.612Z,96942.37
2018-07-14T13:27:44.249Z,96820.99
2018-07-14T13:30:13.327Z,96956.95
2018-07-14T13:32:42.660Z,96885.49
2018-07-14T13:35:11.996Z,96906.48
2018-07-14T13:37:41.316Z,96901.98
2018-07-14T13:40:10.656Z,96846.48
2018-07-14T13:42:39.980Z,96907.37
2018-07-14T13:45:09.339Z,96798.14
2018-07-14T13:47:38.422Z,96814.68
2018-07-14T13:50:08.855Z,96916.20
2018-07-14T13:52:37.964Z,96848.45
2018-07-14T13:55:07.585Z,96869.30
2018-07-14T13:57:36.980Z,96836.69
2018-07-14T14:00:06.885Z,96853.82
2018-07-14T14:02:36.887Z,96902.91
2018-07-14T14:05:06.063Z,96845.19
2018-07-14T14:07:35.691Z,96842.66
2018-07-14T14:10:04.794Z,96858.75
2018-07-14T14:12:34.128Z,96830.56
2018-07-14T14:15:03.476Z,96866.46
2018-07-14T14:17:32.800Z,96819.67
2018-07-14T14:20:02.158Z,96800.11
2018-07-14T14:22:31.460Z,96795.49
2018-07-14T14:25:00.801Z,96794.84
2018-07-14T14:27:30.128Z,96796.27
2018-07-14T14:29:59.483Z,96791.02
2018-07-14T14:32:28.819Z,96793.31
2018-07-14T14:34:58.153Z,96798.08
2018-07-14T14:37:27.521Z,96807.55
2018-07-14T14:39:56.913Z,96783.27
2018-07-14T14:42:26.273Z,96795.50
2018-07-14T14:44:55.647Z,96798.22
2018-07-14T14:47:25.015Z,96787.02
2018-07-14T14:49:54.360Z,96786.06
2018-07-14T14:52:23.685Z,96792.00
2018-07-14T14:54:53.035Z,96776.81
2018-07-14T14:57:22.385Z,96787.02
2018-07-14T14:59:51.724Z,96752.84
2018-07-14T15:02:21.048Z,96780.03
2018-07-14T15:04:50.439Z,96744.40
2018-07-14T15:07:19.487Z,96740.65
2018-07-14T15:09:48.853Z,96785.64
2018-07-14T15:12:18.177Z,96842.78
2018-07-14T15:14:47.511Z,96850.31
2018-07-14T15:17:16.583Z,96687.53
2018-07-14T15:19:45.932Z,96850.26
2018-07-14T15:22:15.304Z,96804.80
2018-07-14T15:24:44.408Z,96766.39
2018-07-14T15:27:13.742Z,96803.44
2018-07-14T15:29:43.097Z,96820.65
2018-07-14T15:32:12.235Z,96740.61
2018-07-14T15:34:41.541Z,96787.66
2018-07-14T15:37:10.903Z,96806.80
2018-07-14T15:39:40.267Z,96784.14
2018-07-14T15:42:09.747Z,96755.06
2018-07-14T15:44:39.080Z,96757.91
2018-07-14T15:47:08.416Z,96740.67
2018-07-14T15:49:37.740Z,96730.70
2018-07-14T15:52:07.448Z,96760.63
2018-07-14T15:54:36.893Z,96812.11
2018-07-14T15:57:06.228Z,96755.27
2018-07-14T15:59:35.548Z,96744.35
2018-07-14T16:02:05.072Z,96754.63
2018-07-14T16:04:34.383Z,96736.88
2018-07-14T16:07:03.724Z,96735.72
2018-07-14T16:09:32.794Z,96625.14
2018-07-14T16:12:02.128Z,96712.83
2018-07-14T16:14:31.463Z,96749.86
2018-07-14T16:17:00.793Z,96730.80
2018-07-14T16:19:30.160Z,96723.02
2018-07-14T16:21:59.480Z,96709.98
2018-07-14T16:24:28.812Z,96705.12
2018-07-14T16:26:57.904Z,96696.70
2018-07-14T16:29:27.232Z,96714.05
2018-07-14T16:31:56.580Z,96704.02
2018-07-14T16:34:25.939Z,96709.52
2018-07-14T16:36:55.313Z,96675.41
2018-07-14T16:39:24.410Z,96737.40
2018-07-14T16:41:53.491Z,96560.16
2018-07-14T16:44:22.820Z,96711.35
2018-07-14T16:46:52.168Z,96722.48
2018-07-14T16:49:21.483Z,96679.72
2018-07-14T16:51:50.833Z,96693.03
2018-07-14T16:54:20.151Z,96699.80
2018-07-14T16:56:49.479Z,96714.44
2018-07-14T16:59:18.809Z,96707.40
2018-07-14T17:01:48.135Z,96660.58
2018-07-14T17:04:17.479Z,96680.91
2018-07-14T17:06:46.808Z,96684.40
2018-07-14T17:09:16.196Z,96684.92
2018-07-14T17:11:45.555Z,96545.17
2018-07-14T17:14:14.959Z,96718.77
2018-07-14T17:16:44.268Z,96695.98
2018-07-14T17:19:13.620Z,96683.50
2018-07-14T17:21:42.723Z,96744.42
2018-07-14T17:24:11.807Z,96666.20
2018-07-14T17:26:40.899Z,96704.14
2018-07-14T17:29:09.984Z,96694.41
2018-07-14T17:31:39.317Z,96689.03
2018-07-14T17:34:09.456Z,96670.08
2018-07-14T17:36:38.792Z,96790.77
2018-07-14T17:39:09.139Z,96710.67
2018-07-14T17:41:38.682Z,96719.58
2018-07-14T17:44:09.080Z,96768.55
2018-07-14T17:46:38.156Z,96739.03
2018-07-14T17:49:07.484Z,96693.52
2018-07-14T17:51:37.047Z,96781.45
2018-07-14T17:54:06.190Z,96721.39
2018-07-14T17:56:35.516Z,96771.67
2018-07-14T17:59:04.872Z,96697.84
2018-07-14T18:01:33.964Z,96739.23
2018-07-14T18:04:03.039Z,96701.34
2018-07-14T18:06:32.407Z,96699.98
2018-07-14T18:09:01.753Z,96709.42
2018-07-14T18:11:31.093Z,96695.08
2018-07-14T18:14:00.432Z,96733.44
2018-07-14T18:16:29.850Z,96699.03
2018-07-14T18:18:58.871Z,96688.75
2018-07-14T18:21:28.219Z,96686.77
2018-07-14T18:23:57.601Z,96699.14
2018-07-14T18:26:26.927Z,96694.22
2018-07-14T18:28:56.281Z,96664.51
2018-07-14T18:31:25.620Z,96555.91
2018-07-14T18:33:54.948Z,96658.98
2018-07-14T18:36:24.316Z,96670.99
2018-07-14T18:38:53.660Z,96654.55
2018-07-14T18:41:23.055Z,96682.53
2018-07-14T18:43:52.441Z,96510.05
2018-07-14T18:46:21.768Z,96778.70
2018-07-14T18:48:50.864Z,96639.78
2018-07-14T18:51:19.951Z,96708.41
2018-07-14T18:53:49.290Z,96753.59
2018-07-14T18:56:18.640Z,96700.66
2018-07-14T18:58:47.999Z,96689.30
2018-07-14T19:01:17.332Z,96748.55
2018-07-14T19:03:46.677Z,96672.89
2018-07-14T19:06:16.025Z,96705.55
2018-07-14T19:08:45.419Z,96694.97
2018-07-14T19:11:14.738Z,96718.59
2018-07-14T19:13:44.087Z,96719.59
2018-07-14T19:16:13.424Z,96711.78
2018-07-14T19:18:42.771Z,96713.88
2018-07-14T19:21:11.960Z,96673.09
2018-07-14T19:23:40.966Z,96723.67
2018-07-14T19:26:10.275Z,96718.28
2018-07-14T19:28:39.477Z,96713.58
2018-07-14T19:31:08.953Z,96715.45
2018-07-14T19:33:38.176Z,96726.63
2018-07-14T19:36:08.753Z,96757.96
2018-07-14T19:38:38.123Z,96741.95
2018-07-14T19:41:07.508Z,96741.19
2018-07-14T19:43:36.931Z,96730.43
2018-07-14T19:46:06.284Z,96762.80
2018-07-14T19:48:35.640Z,96729.66
2018-07-14T19:51:05.030Z,96740.50
2018-07-14T19:53:34.346Z,96773.59
2018-07-14T19:56:03.766Z,96757.39
2018-07-14T19:58:32.790Z,96757.45
2018-07-14T20:01:01.899Z,96759.84
2018-07-14T20:03:31.243Z,96771.83
2018-07-14T20:06:00.592Z,96779.13
2018-07-14T20:08:29.678Z,96743.78
2018-07-14T20:10:59.041Z,96767.13
2018-07-14T20:13:28.460Z,96779.22
2018-07-14T20:15:57.803Z,96790.83
2018-07-14T20:18:27.144Z,96763.63
2018-07-14T20:20:56.474Z,96766.52
2018-07-14T20:23:25.801Z,96783.62
2018-07-14T20:25:54.874Z,96773.95
2018-07-14T20:28:24.236Z,96793.66
2018-07-14T20:30:53.591Z,96787.73
2018-07-14T20:33:22.698Z,96776.23
2018-07-14T20:35:51.787Z,96752.69
2018-07-14T20:38:21.129Z,96787.28
2018-07-14T20:40:50.488Z,96803.20
2018-07-14T20:43:19.703Z,96767.08
2018-07-14T20:45:49.035Z,96785.41
2018-07-14T20:48:18.375Z,96794.44
2018-07-14T20:50:47.487Z,96816.55
2018-07-14T20:53:16.563Z,96765.50
2018-07-14T20:55:45.916Z,96884.34
2018-07-14T20:58:15.252Z,96794.45
2018-07-14T21:00:44.595Z,96776.64
2018-07-14T21:03:13.923Z,96778.80
2018-07-14T21:05:43.521Z,96782.64
2018-07-14T21:08:12.843Z,96773.23
2018-07-14T21:10:42.176Z,96768.95
2018-07-14T21:13:11.503Z,96902.00
2018-07-14T21:15:40.914Z,96780.90
2018-07-14T21:18:10.244Z,96791.06
2018-07-14T21:20:39.656Z,96811.69
2018-07-14T21:23:08.935Z,96780.19
2018-07-14T21:25:38.296Z,96793.77
2018-07-14T21:28:08.607Z,96791.30
2018-07-14T21:30:37.703Z,96812.80
2018-07-14T21:33:07.112Z,96895.33
2018-07-14T21:35:36.628Z,96769.16
2018-07-14T21:38:05.983Z,96798.71
2018-07-14T21:40:35.328Z,96803.80
2018-07-14T21:43:04.666Z,96765.06
2018-07-14T21:45:34.016Z,96817.17
2018-07-14T21:48:03.109Z,96745.45
2018-07-14T21:50:32.470Z,96777.80
2018-07-14T21:53:01.792Z,96798.73
2018-07-14T21:55:31.124Z,96796.88
2018-07-14T21:58:00.231Z,96811.56
2018-07-14T22:00:35.144Z,96815.87
2018-07-14T22:03:06.115Z,96792.71
2018-07-14T22:05:35.440Z,96799.80
2018-07-14T22:08:04.791Z,96817.64
2018-07-14T22:10:34.131Z,96804.31
2018-07-14T22:13:03.471Z,96815.71
2018-07-14T22:15:32.810Z,96763.46
2018-07-14T22:18:02.139Z,96793.34
2018-07-14T22:20:31.488Z,96776.66
2018-07-14T22:23:00.827Z,96805.34
2018-07-14T22:25:30.161Z,96800.94
2018-07-14T22:27:59.494Z,96780.45
2018-07-14T22:30:28.607Z,96816.61
2018-07-14T22:32:57.969Z,96808.23
2018-07-14T22:35:27.283Z,96809.56
2018-07-14T22:37:56.366Z,96800.45
2018-07-14T22:40:25.447Z,96699.87
2018-07-14T22:42:54.811Z,96800.32
2018-07-14T22:45:24.135Z,96809.04
2018-07-14T22:47:53.463Z,96817.93
2018-07-14T22:50:22.807Z,96722.36
2018-07-14T22:52:52.227Z,96817.91
2018-07-14T22:55:21.548Z,96793.09
2018-07-14T22:57:57.650Z,96824.00
2018-07-14T23:00:26.979Z,96802.23
2018-07-14T23:02:56.317Z,96783.06
2018-07-14T23:05:25.856Z,96812.52
2018-07-14T23:07:55.201Z,96777.64
2018-07-14T23:10:24.532Z,96821.75
2018-07-14T23:12:53.862Z,96806.05
2018-07-14T23:15:23.199Z,96772.81
2018-07-14T23:17:52.532Z,96794.02
2018-07-14T23:20:21.874Z,96748.88
2018-07-14T23:22:51.321Z,96794.82
2018-07-14T23:25:20.651Z,96818.17
2018-07-14T23:27:49.767Z,96757.80
2018-07-14T23:30:19.103Z,96799.67
2018-07-14T23:32:48.419Z,96798.16
2018-07-14T23:35:17.760Z,96804.55
2018-07-14T23:37:46.873Z,96806.64
2018-07-14T23:40:16.203Z,96802.08
2018-07-14T23:42:45.543Z,96789.48
2018-07-14T23:45:14.872Z,96695.54
2018-07-14T23:47:44.225Z,96795.27
2018-07-14T23:50:13.560Z,96791.42
2018-07-14T23:52:42.638Z,96800.63
2018-07-14T23:55:11.967Z,96872.86
2018-07-14T23:57:41.291Z,96776.31
